Les Masies de Roda





Hora UTC 22:20
Temperatura 3.1 ºC
Sòl 15 cm 2.3 ºC
Subsòl 10 cm 3.7 ºC
Humitat 98.4 %
Pressió 1015.0 hPa
Pluja 0.0 mm
Velocitat vent 0.8 km/h
Direcció vent ENE
Radiació solar 0.1 W/m²

Dades diàries 2019-12-11



Hora UTC (hivern +1h; estiu +2h)
Temperatura (ºC) Humitat (%) Pressió (hPa) Velocitat vent (km/h) Precipitació (mm) Radiació solar (W/m²)
Hora UTC Aire Sòl 15 cm Subsòl 10 cm Humitat Pressió Vel. Dir. Vel. Max Dir. Intent. màx 5 min. Rad. Sol.
00:05 0.6 -0.7 2.6 98.0 1020.9 0.4 ENE 0.4 W 0.0 0.1
00:10 0.7 -0.6 2.6 98.2 1020.8 0.7 E 6.1 E 0.0 0.1
00:15 0.8 -0.6 2.6 98.1 1020.8 1.8 NE 6.1 ENE 0.0 0.1
00:20 0.7 -0.6 2.6 98.0 1020.8 0.1 NNE 3.4 NNE 0.0 0.1
00:25 0.7 -0.6 2.6 98.0 1020.7 0.8 NNE 6.1 NE 0.0 0.1
00:30 0.6 -0.7 2.5 97.8 1020.7 0.1 NNW 3.4 NNW 0.0 0.1
00:35 0.4 -0.9 2.5 97.7 1020.7 0.0 NNE 0.0 NNW 0.0 0.1
00:40 0.5 -0.9 2.5 98.0 1020.6 0.0 NNE 0.0 NNW 0.0 0.1
00:45 0.6 -0.9 2.5 98.0 1020.6 0.0 NNE 0.0 NNW 0.0 0.1
00:50 0.5 -0.9 2.5 98.0 1020.5 0.0 NNE 0.0 NNW 0.0 0.1
00:55 0.6 -0.9 2.5 98.0 1020.5 0.0 NNE 0.0 NNW 0.0 0.1
01:00 0.5 -0.9 2.4 97.9 1020.5 0.0 NNE 0.0 NNW 0.0 0.1
01:05 0.3 -1.0 2.4 97.6 1020.4 0.0 NNE 0.0 NNW 0.0 0.1
01:10 0.2 -1.1 2.4 97.8 1020.3 0.0 NNE 0.0 NNW 0.0 0.1
01:15 0.2 -1.2 2.4 97.8 1020.4 0.0 NNE 0.0 NNW 0.0 0.1
01:20 0.1 -1.1 2.4 97.8 1020.4 0.0 NNE 0.0 NNW 0.0 0.1
01:25 0.2 -1.1 2.4 98.1 1020.3 0.0 NNE 0.0 NNW 0.0 0.1
01:30 0.4 -1.0 2.3 98.2 1020.3 0.2 N 3.4 N 0.0 0.1
01:35 0.3 -1.0 2.3 98.0 1020.4 0.0 NNE 0.0 N 0.0 0.1
01:40 0.1 -1.1 2.3 97.9 1020.4 0.0 NNE 0.0 N 0.0 0.1
01:45 0.0 -1.2 2.3 97.9 1020.3 0.0 NNE 0.0 N 0.0 0.1
01:50 0.1 -1.3 2.3 98.2 1020.2 0.0 NNE 0.0 N 0.0 0.1
01:55 0.3 -1.2 2.3 98.3 1020.2 0.0 NNE 0.0 ESE 0.0 0.1
02:00 0.2 -1.2 2.3 98.1 1020.2 0.0 NNE 0.0 ESE 0.0 0.1
02:05 0.1 -1.3 2.2 98.1 1020.1 0.0 NNE 0.0 ESE 0.0 0.1
02:10 0.1 -1.3 2.2 98.2 1020.0 0.0 NNE 0.0 ESE 0.0 0.1
02:15 0.0 -1.3 2.2 98.1 1020.1 0.0 NNE 0.0 ESE 0.0 0.1
02:20 -0.1 -1.4 2.2 98.0 1020.2 1.3 WSW 6.1 WSW 0.0 0.1
02:25 -0.3 -1.6 2.1 98.0 1020.1 0.8 WSW 6.1 WSW 0.0 0.1
02:30 0.0 -1.6 2.1 98.5 1019.8 1.8 SE 6.1 SE 0.0 0.1
02:35 0.2 -1.4 2.1 98.4 1019.9 0.0 NNE 0.0 SSE 0.0 0.1
02:40 0.1 -1.4 2.1 98.2 1019.8 0.0 NNE 0.0 SSE 0.0 0.1
02:45 -0.1 -1.5 2.1 98.1 1019.7 0.0 NNE 0.0 SSE 0.0 0.1
02:50 -0.2 -1.6 2.0 98.3 1019.7 0.0 NNE 0.0 SSE 0.0 0.1
02:55 -0.1 -1.6 2.0 98.4 1019.6 0.0 NNE 0.0 SSE 0.0 0.1
03:00 -0.1 -1.5 2.0 98.4 1019.5 1.0 E 3.4 ESE 0.0 0.1
03:05 -0.1 -1.6 2.0 98.4 1019.5 0.0 NNE 0.0 E 0.0 0.1
03:10 -0.2 -1.6 2.0 98.4 1019.4 0.0 NNE 0.0 E 0.0 0.1
03:15 -0.3 -1.8 2.0 98.3 1019.4 0.0 NNE 0.0 E 0.0 0.1
03:20 -0.3 -1.9 1.9 98.5 1019.3 0.0 NNE 0.0 E 0.0 0.1
03:25 -0.3 -2.0 1.9 98.5 1019.3 0.0 NNE 0.0 E 0.0 0.1
03:30 -0.3 -2.2 1.9 98.5 1019.3 0.0 NNE 0.0 E 0.0 0.1
03:35 -0.3 -2.3 1.9 98.5 1019.3 0.0 NNE 0.0 E 0.0 0.1
03:40 -0.4 -2.3 1.8 98.5 1019.3 0.0 NNE 0.0 E 0.0 0.1
03:45 -0.4 -2.3 1.8 98.5 1019.2 0.0 NNE 0.0 E 0.0 0.1
03:50 -0.4 -2.2 1.8 98.6 1019.2 0.0 NNE 0.0 E 0.0 0.1
03:55 -0.3 -2.1 1.8 98.7 1019.0 0.2 ENE 6.1 ENE 0.0 0.1
04:00 -0.3 -2.1 1.8 98.8 1019.0 1.2 E 6.1 ENE 0.0 0.1
04:05 -0.1 -1.7 1.7 98.8 1018.9 3.1 ESE 8.8 ESE 0.0 0.1
04:10 -0.2 -1.7 1.7 98.6 1018.8 0.2 E 3.4 E 0.0 0.1
04:15 -0.3 -1.7 1.7 98.7 1018.6 0.0 NNE 0.0 E 0.0 0.1
04:20 -0.3 -1.7 1.7 98.8 1018.5 0.0 NNE 0.0 ESE 0.0 0.1
04:25 -0.3 -1.7 1.7 98.8 1018.4 0.0 NNE 0.0 E 0.0 0.1
04:30 -0.4 -1.7 1.7 98.7 1018.5 0.0 NNE 0.0 E 0.0 0.1
04:35 -0.6 -1.8 1.7 98.6 1018.5 0.0 NNE 0.0 W 0.0 0.1
04:40 -0.6 -2.1 1.7 98.7 1018.4 0.0 NNE 0.0 W 0.0 0.1
04:45 -0.5 -2.1 1.7 98.9 1018.3 0.0 NNE 0.0 W 0.0 0.1
04:50 -0.5 -2.2 1.7 98.8 1018.3 0.0 NNE 0.0 W 0.0 0.1
04:55 -0.4 -2.1 1.7 98.9 1018.3 0.0 NNE 0.0 W 0.0 0.1
05:00 -0.4 -1.9 1.7 98.9 1018.2 0.0 NNE 0.0 W 0.0 0.1
05:05 -0.4 -1.9 1.7 98.9 1018.2 0.0 NNE 0.0 W 0.0 0.1
05:10 -0.4 -1.8 1.7 98.9 1018.1 0.0 NNE 0.0 W 0.0 0.1
05:15 -0.3 -1.5 1.7 99.1 1018.0 0.3 E 6.1 E 0.0 0.1
05:20 -0.1 -1.1 1.7 99.2 1017.9 0.0 NNE 0.0 ESE 0.0 0.1
05:25 0.0 -0.9 1.8 99.1 1017.9 0.0 NNE 0.0 SE 0.0 0.1
05:30 0.1 -0.7 1.8 99.1 1018.0 0.0 NNE 0.0 SE 0.0 0.1
05:35 0.1 -0.6 1.8 99.1 1018.0 0.0 NNE 0.0 SE 0.0 0.1
05:40 0.1 -0.5 1.9 99.1 1017.8 0.0 NNE 0.0 SE 0.0 0.1
05:45 0.2 -0.4 1.9 99.2 1017.8 0.0 NNE 0.0 SE 0.0 0.1
05:50 0.2 -0.4 1.9 99.2 1017.8 0.0 NNE 0.0 ESE 0.0 0.1
05:55 0.3 -0.3 1.9 99.2 1017.7 0.0 NNE 0.0 ESE 0.0 0.1
06:00 0.3 -0.3 1.9 99.2 1017.6 0.0 NNE 0.0 ENE 0.0 0.1
06:05 0.3 -0.3 2.0 99.3 1017.6 0.0 NNE 0.0 ENE 0.0 0.1
06:10 0.3 -0.4 2.0 99.3 1017.6 0.0 NNE 0.0 N 0.0 0.1
06:15 0.2 -0.4 2.0 99.3 1017.6 0.0 NNE 0.0 NW 0.0 0.1
06:20 0.2 -0.5 2.0 99.3 1017.6 0.0 NNE 0.0 NNW 0.0 0.1
06:25 0.2 -0.6 2.0 99.2 1017.6 0.0 NNE 0.0 NNE 0.0 0.1
06:30 0.1 -0.9 1.9 99.2 1017.6 0.0 NNE 0.0 N 0.0 0.1
06:35 0.1 -0.9 1.9 99.2 1017.7 0.0 NNE 0.0 W 0.0 0.1
06:40 0.0 -1.1 1.9 99.2 1017.7 0.0 NNE 0.0 W 0.0 0.1
06:45 -0.1 -1.3 1.9 99.2 1017.7 0.0 NNE 0.0 W 0.0 0.1
06:50 -0.1 -1.5 1.9 99.2 1017.6 0.0 NNE 0.0 W 0.0 0.2
06:55 -0.1 -1.4 1.9 99.4 1017.5 0.0 NNE 0.0 E 0.0 0.6
07:00 0.0 -1.3 1.8 99.5 1017.4 0.0 NNE 0.0 ESE 0.0 1.4
07:05 -0.1 -1.3 1.8 99.3 1017.3 0.0 NNE 0.0 SE 0.0 1.9
07:10 -0.2 -1.4 1.8 99.2 1017.4 0.0 NNE 0.0 SE 0.0 2.0
07:15 -0.3 -1.4 1.8 99.3 1017.2 0.0 NNE 0.0 NW 0.0 2.9
07:20 -0.3 -1.3 1.8 99.4 1017.2 0.0 NNE 0.0 NW 0.0 4.6
07:25 -0.3 -1.2 1.8 99.4 1017.2 0.0 NNE 0.0 NNW 0.0 7.5
07:30 -0.2 -1.0 1.8 99.5 1017.2 0.0 NNE 0.0 NW 0.0 11.5
07:35 -0.3 -0.9 1.8 99.4 1017.1 0.0 NNE 0.0 NW 0.0 14.8
07:40 -0.3 -0.9 1.9 99.4 1017.1 0.0 NNE 0.0 W 0.0 17.1
07:45 -0.4 -0.8 1.9 99.4 1017.1 0.0 NNE 0.0 W 0.0 20.1
07:50 -0.5 -0.8 1.9 99.4 1017.2 0.0 NNE 0.0 W 0.0 22.9
07:55 -0.5 -0.8 1.9 99.4 1017.2 0.0 NNE 0.0 W 0.0 29.4
08:00 -0.5 -0.6 1.9 99.5 1017.0 0.0 NNE 0.0 W 0.0 34.7
08:05 -0.4 -0.5 2.0 99.6 1017.1 0.0 NNE 0.0 ENE 0.0 33.3
08:10 -0.2 -0.3 2.0 99.7 1017.1 0.0 NNE 0.0 E 0.0 41.2
08:15 -0.1 -0.2 2.0 99.6 1017.1 0.0 NNE 0.0 ESE 0.0 47.8
08:20 -0.1 -0.2 2.1 99.6 1017.1 0.0 NNE 0.0 SSE 0.0 62.1
08:25 0.0 0.0 2.2 99.7 1017.1 0.0 NNE 0.0 ESE 0.0 75.7
08:30 0.2 0.0 2.2 99.7 1017.0 0.0 NNE 0.0 E 0.0 88.9
08:35 0.2 0.1 2.4 99.6 1016.9 0.0 NNE 0.0 E 0.0 95.5
08:40 0.4 0.2 2.5 99.7 1016.9 0.0 NNE 0.0 NE 0.0 132.5
08:45 0.5 0.2 2.6 99.6 1016.9 0.0 NNE 0.0 S 0.0 121.8
08:50 0.6 0.3 2.7 99.6 1016.9 0.0 NNE 0.0 SW 0.0 90.1
08:55 0.5 0.4 2.8 99.5 1016.9 0.0 NNE 0.0 W 0.0 83.1
09:00 0.5 0.4 2.8 99.5 1016.9 0.0 NNE 0.0 W 0.0 100.2
09:05 0.5 0.6 2.9 99.6 1016.7 0.0 NNE 0.0 WNW 0.0 123.9
09:10 0.6 0.9 3.0 99.6 1016.8 0.0 NNE 0.0 WNW 0.0 154.3
09:15 0.7 1.1 3.2 99.6 1016.8 0.0 NNE 0.0 NNE 0.0 131.9
09:20 0.8 1.2 3.3 99.6 1016.7 0.0 NNE 0.0 NNE 0.0 121.1
09:25 0.9 1.1 3.4 99.7 1016.8 0.0 NNE 0.0 NE 0.0 115.5
09:30 1.1 1.1 3.5 99.7 1016.7 0.0 NNE 0.0 WNW 0.0 106.4
09:35 1.1 1.1 3.6 99.6 1016.7 0.0 NNE 0.0 SW 0.0 113.6
09:40 1.3 1.4 3.6 99.7 1016.7 0.0 NNE 0.0 WSW 0.0 181.9
09:45 1.4 1.8 3.8 99.5 1016.5 0.0 NNE 0.0 NNE 0.0 126.5
09:50 1.4 1.7 3.9 99.6 1016.3 0.0 NNE 0.0 ENE 0.0 108.6
09:55 1.7 1.6 3.9 99.6 1016.2 0.0 NNE 0.0 SSE 0.0 154.7
10:00 2.1 1.9 4.0 99.5 1016.2 0.0 NNE 0.0 ESE 0.0 234.0
10:05 2.2 2.3 4.1 99.0 1016.2 0.0 NNE 0.0 W 0.0 173.3
10:10 2.1 2.4 4.2 98.9 1016.2 1.9 W 8.8 W 0.0 159.5
10:15 2.2 2.8 4.2 98.8 1016.1 4.7 W 6.1 W 0.0 226.6
10:20 2.2 3.3 4.4 98.6 1016.0 4.2 W 6.1 W 0.0 207.7
10:25 2.3 3.7 4.5 98.7 1016.0 4.1 W 6.1 W 0.0 228.7
10:30 2.4 4.1 4.7 98.6 1015.9 1.0 WNW 6.1 WNW 0.0 240.7
10:35 2.8 4.5 4.8 98.6 1015.8 0.0 NNE 0.0 WNW 0.0 234.8
10:40 2.9 5.0 5.0 96.8 1015.6 0.0 NNE 0.0 S 0.0 223.1
10:45 3.0 5.3 5.2 95.3 1015.6 0.0 NNE 0.0 S 0.0 218.4
10:50 3.2 5.4 5.4 94.1 1015.5 0.0 NNE 0.0 NE 0.0 211.3
10:55 3.4 5.5 5.5 92.6 1015.4 0.0 NNE 0.0 E 0.0 205.2
11:00 3.5 5.7 5.6 90.5 1015.3 0.0 NNE 0.0 ENE 0.0 228.3
11:05 3.9 5.9 5.8 89.9 1015.0 0.0 NNE 0.0 E 0.0 294.1
11:10 4.4 6.6 6.0 90.2 1014.9 0.0 NNE 0.0 ESE 0.0 304.0
11:15 4.8 6.9 6.2 88.2 1014.8 0.5 NW 6.1 NNW 0.0 210.2
11:20 4.8 6.6 6.3 87.9 1014.7 3.2 WNW 6.1 NW 0.0 169.9
11:25 4.6 6.2 6.3 86.7 1014.6 4.5 W 6.1 W 0.0 158.9
11:30 4.6 5.9 6.3 88.0 1014.5 5.7 W 8.8 W 0.0 155.6
11:35 4.6 5.8 6.3 88.4 1014.4 4.4 W 8.8 WNW 0.0 174.3
11:40 4.7 6.0 6.3 87.2 1014.4 4.5 WNW 8.8 W 0.0 185.1
11:45 4.8 6.2 6.4 85.2 1014.3 3.2 WNW 6.1 WNW 0.0 185.6
11:50 5.1 6.4 6.4 83.1 1014.2 0.7 SW 6.1 SSW 0.0 189.1
11:55 5.2 6.4 6.5 81.2 1014.1 1.4 WSW 6.1 W 0.0 183.3
12:00 5.3 6.7 6.6 81.3 1014.1 0.3 WSW 3.4 W 0.0 184.8
12:05 5.5 7.1 6.6 80.6 1013.9 0.0 NNE 0.0 SW 0.0 177.4
12:10 5.5 7.2 6.7 79.8 1013.8 0.1 SE 3.4 SSE 0.0 164.3
12:15 5.5 7.3 6.7 79.7 1013.7 0.0 NNE 0.0 SE 0.0 162.0
12:20 5.6 7.2 6.7 80.6 1013.7 0.0 NNE 0.0 SE 0.0 156.8
12:25 5.7 7.1 6.8 79.8 1013.6 0.0 NNE 0.0 S 0.0 141.7
12:30 5.7 7.1 6.8 79.4 1013.6 0.0 NNE 0.0 S 0.0 125.0
12:35 5.8 6.9 6.8 79.8 1013.6 0.0 NNE 0.0 WSW 0.0 129.3
12:40 5.9 7.0 6.8 79.8 1013.7 0.0 NNE 0.0 WSW 0.0 134.5
12:45 6.0 7.1 6.8 79.3 1013.6 0.0 NNE 0.0 W 0.0 145.0
12:50 6.1 7.3 6.9 79.4 1013.5 0.5 SSW 3.4 SSW 0.0 154.9
12:55 6.2 7.7 6.9 78.4 1013.4 0.0 NNE 0.0 ENE 0.0 159.6
13:00 6.2 7.9 7.0 78.9 1013.4 1.5 ENE 6.1 ENE 0.0 152.9
13:05 6.3 8.0 7.0 79.2 1013.4 0.0 NNE 0.0 ENE 0.0 141.7
13:10 6.4 7.8 7.1 80.1 1013.3 0.2 WNW 3.4 WNW 0.0 152.3
13:15 6.5 7.7 7.1 79.7 1013.2 0.4 NW 3.4 NW 0.0 141.5
13:20 6.5 7.6 7.1 79.2 1013.2 1.1 NNW 6.1 NNW 0.0 115.0
13:25 6.5 7.5 7.1 78.9 1013.2 1.5 NNW 6.1 NNW 0.0 86.4
13:30 6.5 7.2 7.1 77.6 1013.1 0.0 NNE 0.0 N 0.0 69.8
13:35 6.5 7.1 7.1 77.8 1013.1 0.0 NNE 0.0 N 0.0 49.3
13:40 6.6 6.9 7.0 79.3 1013.0 0.0 NNE 0.0 NE 0.0 40.9
13:45 6.6 6.8 7.0 79.6 1012.9 0.0 NNE 0.0 NE 0.0 40.2
13:50 6.6 6.7 6.9 80.3 1013.0 0.0 NNE 0.0 NE 0.0 36.9
13:55 6.7 6.6 6.9 80.7 1013.0 0.0 NNE 0.0 NE 0.0 30.0
14:00 6.7 6.5 6.9 80.9 1013.0 0.0 NNE 0.0 NNE 0.0 26.8
14:05 6.6 6.5 6.8 80.5 1012.9 0.0 NNE 0.0 N 0.0 26.8
14:10 6.7 6.5 6.8 80.9 1012.8 0.0 NNE 0.0 N 0.0 22.5
14:15 6.7 6.4 6.8 80.8 1012.8 0.0 NNE 0.0 N 0.0 21.7
14:20 6.7 6.4 6.7 82.4 1012.7 0.0 NNE 0.0 N 0.0 28.1
14:25 6.7 6.3 6.7 83.3 1012.8 0.0 NNE 0.0 N 0.0 37.4
14:30 6.7 6.2 6.7 84.4 1012.8 0.0 NNE 0.0 WSW 0.0 32.9
14:35 6.6 6.2 6.6 84.3 1012.8 0.0 NNE 0.0 W 0.0 29.8
14:40 6.6 6.0 6.6 85.7 1012.9 2.6 W 6.1 W 0.0 22.7
14:45 6.5 5.9 6.6 87.0 1013.0 4.6 WNW 8.8 WNW 0.0 14.6
14:50 6.5 5.7 6.5 84.5 1013.1 4.1 NW 6.1 NW 0.0 10.8
14:55 6.6 5.5 6.5 83.7 1013.1 0.3 NNW 3.4 NNW 0.0 9.5
15:00 6.6 5.5 6.5 83.3 1012.9 0.0 NNE 0.0 NNE 0.0 9.1
15:05 6.6 5.5 6.4 84.1 1012.8 0.6 E 6.1 ESE 0.0 9.6
15:10 6.7 5.5 6.4 83.7 1012.8 4.5 SE 8.8 ESE 0.0 12.6
15:15 6.7 5.5 6.4 84.0 1012.9 3.8 SSE 6.1 SSE 0.0 13.3
15:20 6.7 5.5 6.3 83.7 1012.8 4.2 SE 8.8 SE 0.0 18.3
15:25 6.8 5.5 6.3 83.9 1012.7 5.4 S 8.8 SSE 0.0 17.3
15:30 6.7 5.5 6.3 83.7 1012.8 3.6 S 6.1 S 0.0 16.4
15:35 6.8 5.5 6.3 82.9 1012.9 0.4 S 6.1 S 0.0 17.4
15:40 6.7 5.5 6.3 84.4 1013.1 3.0 SW 8.8 SW 0.0 11.4
15:45 6.7 5.5 6.2 85.5 1013.3 6.2 SW 8.8 SW 0.0 10.1
15:50 6.6 5.5 6.2 85.4 1013.2 7.7 SSW 11.5 SSW 0.0 8.1
15:55 6.6 5.5 6.2 86.8 1013.1 5.4 SSW 8.8 SSW 0.0 7.4
16:00 6.6 5.5 6.2 87.8 1013.1 5.0 W 8.8 W 0.0 5.3
16:05 6.5 5.4 6.2 88.2 1013.2 5.0 W 8.8 W 0.0 5.3
16:10 6.4 5.4 6.1 88.8 1013.4 7.2 W 11.5 W 0.0 4.9
16:15 6.4 5.3 6.1 89.2 1013.4 4.8 SW 8.8 W 0.0 4.5
16:20 6.4 5.4 6.1 90.0 1013.6 3.9 SW 8.8 WSW 0.0 4.0
16:25 6.4 5.3 6.1 90.2 1013.6 3.0 W 8.8 W 0.0 3.5
16:30 6.4 5.3 6.0 90.4 1013.8 5.2 WNW 8.8 W 0.0 1.9
16:35 6.3 5.2 6.0 90.3 1014.2 3.9 WNW 8.8 WNW 0.0 0.6
16:40 6.3 5.2 6.0 90.1 1014.5 1.7 SW 6.1 WSW 0.0 0.3
16:45 6.4 5.2 6.0 89.6 1014.4 4.7 SE 8.8 ESE 0.0 0.2
16:50 6.4 5.1 5.9 89.7 1014.2 4.8 E 8.8 ESE 0.0 0.2
16:55 6.3 4.8 5.9 90.7 1014.3 3.1 E 6.1 ENE 0.0 0.1
17:00 6.2 4.6 5.8 90.8 1014.3 2.2 ESE 6.1 ESE 0.0 0.1
17:05 6.3 4.6 5.8 91.0 1014.2 3.6 ESE 8.8 ESE 0.0 0.1
17:10 6.2 4.7 5.7 91.4 1014.5 2.3 NNE 6.1 E 0.0 0.1
17:15 6.1 4.8 5.7 92.0 1014.7 2.2 NNE 6.1 NNE 0.0 0.1
17:20 6.0 4.7 5.7 92.1 1014.8 1.4 NE 6.1 NE 0.0 0.1
17:25 6.0 4.5 5.6 92.2 1014.7 1.1 ESE 3.4 ESE 0.0 0.1
17:30 6.0 4.1 5.6 92.0 1014.8 0.1 ESE 3.4 ESE 0.0 0.1
17:35 5.8 3.7 5.5 92.3 1014.7 0.0 NNE 0.0 ESE 0.0 0.1
17:40 5.6 3.3 5.4 92.4 1014.7 0.3 ESE 6.1 ESE 0.0 0.1
17:45 5.6 3.1 5.3 92.4 1014.7 1.3 ESE 6.1 ESE 0.0 0.1
17:50 5.5 2.9 5.2 92.0 1014.9 0.0 NNE 0.0 ESE 0.0 0.1
17:55 5.2 2.5 5.1 92.2 1014.7 0.0 NNE 0.0 ESE 0.0 0.1
18:00 5.0 2.2 5.0 92.9 1014.8 0.6 W 3.4 W 0.0 0.1
18:05 4.6 2.0 4.9 93.3 1015.0 0.0 NNE 0.0 W 0.0 0.1
18:10 4.3 1.8 4.8 94.0 1015.0 0.0 NNE 0.0 W 0.0 0.1
18:15 4.4 1.5 4.7 95.5 1014.9 2.3 SE 6.1 SE 0.0 0.1
18:20 4.5 1.7 4.6 95.1 1014.9 0.8 ESE 6.1 ESE 0.0 0.1
18:25 4.0 1.5 4.5 94.7 1015.0 0.0 NNE 0.0 ESE 0.0 0.1
18:30 3.9 1.4 4.4 94.9 1015.0 0.1 W 6.1 W 0.0 0.1
18:35 3.5 1.1 4.4 94.6 1014.9 4.5 W 8.8 W 0.0 0.1
18:40 3.4 0.8 4.3 95.4 1014.7 0.0 NNE 0.0 W 0.0 0.1
18:45 3.5 0.9 4.2 96.4 1014.9 2.6 ESE 6.1 SE 0.0 0.1
18:50 3.3 0.9 4.1 96.4 1015.0 3.4 ENE 6.1 ENE 0.0 0.1
18:55 3.2 0.8 4.1 96.5 1015.1 3.6 ENE 6.1 ENE 0.0 0.1
19:00 3.0 0.7 4.0 96.6 1015.1 2.4 NNW 6.1 NNW 0.0 0.1
19:05 3.1 0.8 3.9 97.1 1015.3 0.0 NE 3.4 NE 0.0 0.1
19:10 3.0 0.9 3.9 97.1 1015.3 0.0 NNE 0.0 NE 0.0 0.1
19:15 3.0 1.0 3.9 97.1 1015.5 0.3 WNW 3.4 NW 0.0 0.1
19:20 2.8 0.8 3.8 97.0 1015.6 0.1 WNW 3.4 WNW 0.0 0.1
19:25 2.8 0.7 3.8 97.3 1015.6 0.0 NNE 0.0 WNW 0.0 0.1
19:30 3.1 0.8 3.7 97.8 1015.6 1.5 SE 6.1 SE 0.0 0.1
19:35 3.4 1.2 3.7 97.7 1015.4 3.1 SE 6.1 SE 0.0 0.1
19:40 3.3 1.2 3.7 97.3 1015.3 0.0 NNE 0.0 SSE 0.0 0.1
19:45 3.1 1.0 3.6 96.7 1015.1 0.0 NNE 0.0 SE 0.0 0.1
19:50 2.7 0.7 3.6 96.5 1015.1 0.0 NNE 0.0 SE 0.0 0.1
19:55 2.5 0.5 3.5 96.5 1015.0 0.0 NNE 0.0 NNE 0.0 0.1
20:00 2.4 0.0 3.4 96.6 1014.8 0.0 NNE 0.0 NNE 0.0 0.1
20:05 2.2 -0.1 3.4 96.6 1014.9 0.0 NNE 0.0 NNE 0.0 0.1
20:10 2.0 -0.4 3.3 96.8 1015.1 0.0 NNE 0.0 NW 0.0 0.1
20:15 2.0 -0.4 3.2 97.0 1015.3 0.0 NNE 0.0 N 0.0 0.1
20:20 1.9 -0.4 3.2 97.2 1015.4 0.0 NNE 0.0 N 0.0 0.1
20:25 2.0 -0.5 3.1 97.7 1015.3 0.0 NNE 0.0 NW 0.0 0.1
20:30 2.0 -0.6 3.1 97.8 1015.3 0.0 NNE 0.0 NNE 0.0 0.1
20:35 2.1 -0.3 3.0 98.2 1015.2 4.0 E 11.5 E 0.0 0.1
20:40 2.2 0.2 3.0 98.2 1015.1 5.2 ESE 8.8 ESE 0.0 0.1
20:45 2.2 0.3 3.0 98.0 1015.2 0.2 E 3.4 E 0.0 0.1
20:50 2.1 0.5 3.0 97.8 1015.1 0.1 E 3.4 E 0.0 0.1
20:55 2.0 0.8 3.1 97.8 1015.0 0.4 W 3.4 W 0.0 0.1
21:00 2.1 1.0 3.1 98.1 1014.9 2.3 NE 6.1 NE 0.0 0.1
21:05 2.3 1.4 3.2 98.4 1014.6 1.6 SSE 6.1 SSE 0.0 0.1
21:10 2.6 1.8 3.2 98.6 1014.7 3.4 SSW 6.1 S 0.0 0.1
21:15 2.6 2.0 3.3 98.4 1014.8 1.3 SSW 6.1 SW 0.0 0.1
21:20 2.6 2.1 3.4 98.5 1014.9 1.8 NE 6.1 ENE 0.0 0.1
21:25 2.8 2.3 3.4 98.7 1014.9 6.0 NE 11.5 ENE 0.0 0.1
21:30 2.9 2.4 3.5 98.7 1015.0 0.9 NW 6.1 W 0.0 0.1
21:35 3.0 2.5 3.5 98.6 1015.0 1.7 WNW 6.1 WNW 0.0 0.1
21:40 3.0 2.5 3.5 98.7 1015.0 1.1 NNW 6.1 N 0.0 0.1
21:45 3.0 2.4 3.6 98.6 1014.9 0.0 NNE 0.0 NNW 0.0 0.1
21:50 3.0 2.3 3.6 98.6 1014.9 0.2 NNE 3.4 NNE 0.0 0.1
21:55 3.0 2.3 3.6 98.5 1014.9 0.1 W 3.4 W 0.0 0.1
22:00 3.0 2.4 3.6 98.5 1015.1 1.1 W 6.1 W 0.0 0.1
22:05 3.1 2.5 3.7 98.5 1015.1 2.0 WSW 6.1 W 0.0 0.1
22:10 3.1 2.6 3.7 98.5 1015.1 0.0 NNE 0.0 SW 0.0 0.1
22:15 3.1 2.5 3.7 98.5 1015.0 0.4 ENE 3.4 SW 0.0 0.1
22:20 3.1 2.3 3.7 98.4 1015.0 0.8 ENE 6.1 ENE 0.0 0.1
Màxima 6.8 8.0 7.1 99.7 1020.9 7.7 SSW 11.5 ENE 0.0 304.0
Mínima -0.6 -2.3 1.7 77.6 1012.7
Total 0.0